Bakersfield (BFL/KBFL)

Map

Destinations

Information

Location
Bakersfield, CA
Local Time
06:15 / 6:15 am
GMT Time
14:15 / 2:15 pm
Gates
Unassigned
No FAA reported delays
METAR KBFL 221354Z 12009KT 10SM -RA BKN065 OVC100 11/06 A2986 RMK AO2 RAB19 SLP108 P0001 T01110061
TAF KBFL 221120Z 2212/2312 07008KT P6SM -RA SCT035 OVC070 FM221800 12020G30KT P6SM -RA OVC035 FM230300 15007KT P6SM -SHRA SCT020 BKN035
  • No charts available